Time;durP1;ratioP1;P1;durP2;ratioP2;P2;SDS_P1;SDS_P2;PMS_P1;PMS_P2;Temp;Humidity;BMP_temperature;BMP_pressure;BME280_temperature;BME280_humidity;BME280_pressure;Samples;Min_cycle;Max_cycle;Signal;HPM_P1;HPM_P2
2022/08/27 00:00:09;;;;;;;13.30;3.45;;;;;;;22.53;30.62;99519.17;1764640;81;21739;-82
2022/08/27 00:03:14;;;;;;;19.00;3.70;;;;;;;22.48;30.73;99522.77;1765502;81;21205;-83
2022/08/27 00:06:22;;;;;;;14.03;3.30;;;;;;;22.45;30.81;99532.53;1764655;81;21224;-83
2022/08/27 00:09:28;;;;;;;15.63;3.67;;;;;;;22.43;30.86;99528.34;1764608;81;21340;-82
2022/08/27 00:12:35;;;;;;;16.97;3.75;;;;;;;22.44;30.74;99527.22;1763698;81;21221;-82
2022/08/27 00:15:41;;;;;;;12.45;3.80;;;;;;;22.41;30.95;99528.62;1763567;81;21225;-82
2022/08/27 00:18:41;;;;;;;22.07;4.08;;;;;;;22.38;31.13;99528.32;1764664;81;21238;-82
2022/08/27 00:21:48;;;;;;;14.73;4.95;;;;;;;22.31;31.00;99520.78;1763237;81;21775;-82
2022/08/27 00:24:55;;;;;;;14.30;4.45;;;;;;;22.28;31.12;99522.71;1764295;81;21193;-82
2022/08/27 00:28:02;;;;;;;12.98;3.55;;;;;;;22.17;31.26;99524.06;1763588;81;21212;-82
2022/08/27 00:30:47;;;;;;;21.15;3.72;;;;;;;22.17;31.40;99518.49;1764722;81;21811;-82
2022/08/27 00:33:52;;;;;;;20.08;4.25;;;;;;;22.15;31.13;99519.86;1764789;81;21185;-82
2022/08/27 00:36:57;;;;;;;12.20;4.12;;;;;;;22.11;31.25;99519.59;1764874;80;21185;-82
2022/08/27 00:40:02;;;;;;;18.82;3.83;;;;;;;22.25;30.99;99523.24;1774957;81;21173;-82
2022/08/27 00:43:09;;;;;;;21.37;4.30;;;;;;;21.95;31.39;99520.58;1774098;81;21343;-82
2022/08/27 00:46:30;;;;;;;20.62;3.90;;;;;;;22.01;31.49;99520.04;1774015;81;21185;-82
2022/08/27 00:50:05;;;;;;;13.30;4.05;;;;;;;21.96;31.71;99518.06;1774961;81;21728;-83
2022/08/27 00:53:21;;;;;;;12.20;3.80;;;;;;;21.90;31.73;99521.37;1774996;81;21173;-83
2022/08/27 00:56:31;;;;;;;19.00;3.55;;;;;;;21.87;31.76;99522.47;1773888;81;21732;-83
2022/08/27 00:59:37;;;;;;;22.25;3.40;;;;;;;21.85;31.63;99519.13;1775098;81;21185;-83
2022/08/27 01:02:45;;;;;;;14.75;4.00;;;;;;;21.86;31.52;99527.76;1774914;81;21185;-83
2022/08/27 01:05:51;;;;;;;12.80;4.35;;;;;;;21.86;31.49;99513.28;1773443;81;21185;-83
2022/08/27 01:08:58;;;;;;;30.48;4.03;;;;;;;21.80;31.48;99516.31;1775198;81;21220;-83
2022/08/27 01:12:04;;;;;;;18.12;4.25;;;;;;;21.76;31.79;99516.02;1774933;81;21243;-83
2022/08/27 01:15:14;;;;;;;11.73;4.20;;;;;;;21.74;31.76;99521.55;1774851;81;21339;-83
2022/08/27 01:18:21;;;;;;;22.10;4.63;;;;;;;21.69;32.01;99520.44;1775270;81;21197;-83
2022/08/27 01:21:34;;;;;;;26.85;4.50;;;;;;;21.68;31.86;99515.12;1774930;81;21418;-83
2022/08/27 01:24:51;;;;;;;27.58;4.92;;;;;;;21.73;31.91;99512.92;1773689;81;21912;-83
2022/08/27 01:27:59;;;;;;;20.27;4.25;;;;;;;21.72;31.83;99515.42;1773771;81;21208;-83
2022/08/27 01:31:04;;;;;;;24.90;4.58;;;;;;;21.71;31.64;99504.85;1775016;81;21185;-83
2022/08/27 01:34:11;;;;;;;15.53;4.55;;;;;;;21.73;31.62;99510.14;1774965;81;21189;-83
2022/08/27 01:37:17;;;;;;;25.80;4.40;;;;;;;21.75;31.66;99512.12;1773698;81;21216;-82
2022/08/27 01:40:25;;;;;;;20.43;4.78;;;;;;;21.75;31.55;99508.77;1763104;80;21217;-83
2022/08/27 01:43:31;;;;;;;22.58;5.35;;;;;;;21.79;31.34;99514.65;1772449;81;21216;-83
2022/08/27 01:46:38;;;;;;;34.58;4.97;;;;;;;21.87;31.29;99521.08;1772060;81;21193;-83
2022/08/27 01:49:44;;;;;;;26.93;5.37;;;;;;;21.85;31.49;99513.56;1771276;81;21228;-83
2022/08/27 01:52:49;;;;;;;24.35;4.55;;;;;;;21.84;31.47;99523.86;1772804;81;21185;-83
2022/08/27 01:55:55;;;;;;;34.90;4.42;;;;;;;21.86;31.47;99526.37;1772707;81;21764;-83
2022/08/27 01:59:02;;;;;;;28.42;4.97;;;;;;;21.80;31.47;99521.88;1772118;81;21221;-83
2022/08/27 02:02:07;;;;;;;23.12;4.75;;;;;;;21.77;31.65;99523.80;1772966;81;21228;-83
2022/08/27 02:05:14;;;;;;;19.40;4.47;;;;;;;21.85;31.65;99524.70;1772999;81;21162;-83
2022/08/27 02:08:21;;;;;;;32.25;5.03;;;;;;;21.82;31.71;99521.05;1772707;81;21169;-83
2022/08/27 02:11:20;;;;;;;30.45;5.12;;;;;;;21.86;31.52;99520.80;1772907;81;21189;-83
2022/08/27 02:14:25;;;;;;;33.00;6.25;;;;;;;21.83;31.77;99516.62;1772074;81;21216;-82
2022/08/27 02:17:31;;;;;;;33.80;5.20;;;;;;;21.83;31.66;99517.16;1771381;81;21205;-82
2022/08/27 02:20:36;;;;;;;38.73;5.37;;;;;;;21.83;31.83;99515.76;1772811;81;21184;-83
2022/08/27 02:23:44;;;;;;;25.10;4.75;;;;;;;21.82;31.84;99518.27;1772806;81;21343;-83
2022/08/27 02:26:51;;;;;;;32.35;5.08;;;;;;;21.80;31.76;99511.59;1772200;81;21162;-83
2022/08/27 02:29:57;;;;;;;23.27;4.40;;;;;;;21.85;31.75;99519.13;1771751;81;21215;-82
2022/08/27 02:33:03;;;;;;;38.38;5.10;;;;;;;21.87;31.70;99514.95;1772747;81;21193;-82
2022/08/27 02:36:01;;;;;;;;;;;;;;;21.85;31.84;99511.61;1775326;81;21177;-82
2022/08/27 02:39:05;;;;;;;40.35;5.80;;;;;;;21.90;31.85;99521.94;1772825;81;20219;-82
2022/08/27 02:42:12;;;;;;;31.23;5.35;;;;;;;21.89;31.86;99523.89;1769665;81;21804;-82
2022/08/27 02:45:19;;;;;;;36.83;5.78;;;;;;;21.85;31.98;99521.91;1763595;81;21213;-82
2022/08/27 02:48:24;;;;;;;31.48;6.03;;;;;;;21.77;32.07;99525.20;1763543;81;21221;-83
2022/08/27 02:51:30;;;;;;;30.35;5.50;;;;;;;21.72;32.18;99520.98;1763334;81;21261;-82
2022/08/27 02:54:36;;;;;;;27.65;5.05;;;;;;;21.79;32.01;99528.56;1764632;81;21225;-83
2022/08/27 02:57:43;;;;;;;40.15;5.03;;;;;;;21.86;32.02;99523.58;1763801;81;21796;-83
2022/08/27 03:00:50;;;;;;;27.75;4.92;;;;;;;21.73;32.31;99531.84;1763570;81;21772;-82
2022/08/27 03:03:56;;;;;;;28.35;4.42;;;;;;;21.74;32.29;99537.72;1764647;81;21240;-82
2022/08/27 03:07:02;;;;;;;33.02;5.12;;;;;;;21.76;32.35;99534.10;1763127;81;21471;-83
2022/08/27 03:10:10;;;;;;;44.70;5.70;;;;;;;21.81;32.47;99536.08;1764621;81;21166;-82
2022/08/27 03:13:15;;;;;;;32.73;4.85;;;;;;;21.69;32.65;99532.12;1764750;81;21186;-83
2022/08/27 03:16:22;;;;;;;30.27;5.10;;;;;;;21.79;32.63;99536.91;1763233;81;21201;-82
2022/08/27 03:19:27;;;;;;;46.28;6.15;;;;;;;21.76;32.87;99540.22;1763219;81;21189;-83
2022/08/27 03:22:33;;;;;;;22.73;4.83;;;;;;;21.74;32.94;99540.50;1764808;81;21831;-83
2022/08/27 03:25:40;;;;;;;32.10;5.62;;;;;;;21.66;33.33;99544.61;1764672;81;21181;-82
2022/08/27 03:28:47;;;;;;;31.93;5.30;;;;;;;21.62;33.57;99542.08;1763489;81;21819;-82
2022/08/27 03:31:53;;;;;;;20.48;4.15;;;;;;;21.57;33.71;99546.22;1764677;81;21275;-83
2022/08/27 03:34:59;;;;;;;35.25;4.80;;;;;;;21.48;33.84;99546.42;1763319;81;21719;-83
2022/08/27 03:38:05;;;;;;;28.32;5.25;;;;;;;21.48;33.91;99549.20;1763978;81;21510;-83
2022/08/27 03:41:12;;;;;;;24.80;5.05;;;;;;;21.49;33.81;99542.53;1764529;81;21228;-82
2022/08/27 03:44:18;;;;;;;25.45;4.87;;;;;;;21.50;33.98;99545.63;1767585;81;21200;-83
2022/08/27 03:47:24;;;;;;;28.02;5.03;;;;;;;21.51;33.96;99550.08;1772735;81;21177;-82
2022/08/27 03:50:31;;;;;;;28.23;4.40;;;;;;;21.53;34.00;99547.02;1772245;81;21838;-83
2022/08/27 03:53:36;;;;;;;37.75;4.87;;;;;;;21.53;34.12;99552.02;1771451;81;21196;-83
2022/08/27 03:56:41;;;;;;;37.03;5.70;;;;;;;21.56;33.98;99546.49;1771537;81;21184;-83
2022/08/27 03:59:48;;;;;;;29.02;4.75;;;;;;;21.62;34.20;99554.60;1771471;81;21161;-82
2022/08/27 04:02:58;;;;;;;33.40;5.58;;;;;;;21.64;34.26;99548.23;1772968;81;21815;-83
2022/08/27 04:06:04;;;;;;;36.08;6.00;;;;;;;21.75;34.22;99551.08;1772867;81;21283;-83
2022/08/27 04:09:10;;;;;;;34.10;5.65;;;;;;;21.84;34.29;99546.69;1771740;81;21169;-82
2022/08/27 04:12:15;;;;;;;28.60;5.12;;;;;;;21.96;34.32;99541.73;1772811;81;21471;-82
2022/08/27 04:15:20;;;;;;;26.97;4.58;;;;;;;22.02;34.25;99543.98;1772910;81;21193;-82
2022/08/27 04:18:29;;;;;;;22.85;4.08;;;;;;;22.12;34.27;99542.15;1772723;81;21196;-83
2022/08/27 04:21:36;;;;;;;32.98;4.62;;;;;;;22.20;34.13;99546.34;1772794;81;21177;-82
2022/08/27 04:24:43;;;;;;;33.80;5.25;;;;;;;22.22;34.24;99543.30;1772741;81;21236;-83
2022/08/27 04:27:49;;;;;;;29.70;5.45;;;;;;;22.34;34.13;99542.50;1771614;81;21181;-82
2022/08/27 04:30:55;;;;;;;24.20;4.40;;;;;;;22.34;33.84;99542.50;1772645;81;21225;-82
2022/08/27 04:34:01;;;;;;;31.23;4.10;;;;;;;22.35;33.90;99546.44;1772804;81;21224;-82
2022/08/27 04:37:07;;;;;;;34.10;4.72;;;;;;;22.44;33.88;99545.33;1772771;81;21185;-82
2022/08/27 04:40:15;;;;;;;17.32;3.95;;;;;;;22.59;33.60;99546.80;1773013;81;21193;-82
2022/08/27 04:43:19;;;;;;;22.60;4.37;;;;;;;22.58;33.64;99544.27;1772886;81;21747;-82
2022/08/27 04:46:33;;;;;;;30.10;4.40;;;;;;;22.72;33.45;99545.42;1774619;81;21220;-83
2022/08/27 04:49:41;;;;;;;24.85;4.33;;;;;;;22.93;33.51;99542.17;1773901;81;21240;-83
2022/08/27 04:52:47;;;;;;;22.90;4.17;;;;;;;23.00;33.56;99541.33;1751744;81;21173;-83
2022/08/27 04:55:55;;;;;;;17.75;3.90;;;;;;;23.02;33.54;99549.44;1774963;81;21185;-83
2022/08/27 04:59:02;;;;;;;32.23;4.90;;;;;;;23.06;33.36;99538.84;1774594;81;21259;-83
2022/08/27 05:02:09;;;;;;;21.30;3.80;;;;;;;23.16;33.25;99540.81;1774407;81;21268;-83
2022/08/27 05:05:16;;;;;;;20.27;4.03;;;;;;;23.37;32.63;99534.66;1775048;81;21228;-83
2022/08/27 05:08:22;;;;;;;31.97;4.12;;;;;;;23.44;32.94;99536.63;1774630;81;21192;-83
2022/08/27 05:11:33;;;;;;;32.40;4.78;;;;;;;23.55;32.70;99528.52;1773335;81;21192;-83
2022/08/27 05:14:37;;;;;;;28.67;4.15;;;;;;;23.61;32.68;99524.59;1774952;81;21772;-83
2022/08/27 05:17:42;;;;;;;24.15;3.65;;;;;;;23.79;32.28;99527.95;1774253;81;21228;-82
2022/08/27 05:20:52;;;;;;;31.30;5.35;;;;;;;23.93;31.61;99522.89;1773455;81;21478;-82
2022/08/27 05:23:58;;;;;;;20.53;3.90;;;;;;;24.13;32.28;99515.00;1775306;81;21188;-82
2022/08/27 05:27:04;;;;;;;26.73;4.25;;;;;;;24.18;31.93;99519.20;1774861;81;21989;-82
2022/08/27 05:30:10;;;;;;;14.40;3.75;;;;;;;24.39;31.66;99533.11;1773944;81;21192;-82
2022/08/27 05:33:20;;;;;;;29.37;4.40;;;;;;;24.44;31.53;99533.08;1774077;81;22727;-82
2022/08/27 05:36:29;;;;;;;25.72;4.60;;;;;;;24.67;30.67;99521.79;1775081;81;22455;-82
2022/08/27 05:39:34;;;;;;;18.75;4.97;;;;;;;24.67;30.70;99521.79;1774536;81;21192;-82
2022/08/27 05:42:34;;;;;;;19.70;4.07;;;;;;;24.76;30.27;99524.81;1775225;81;21181;-82
2022/08/27 05:45:49;;;;;;;19.48;4.40;;;;;;;24.89;29.83;99539.53;1772630;81;21280;-83
2022/08/27 05:48:57;;;;;;;26.05;3.35;;;;;;;25.08;29.13;99525.19;1772504;81;21213;-82
2022/08/27 05:52:01;;;;;;;12.15;3.05;;;;;;;25.23;28.14;99540.45;1772502;81;21173;-82
2022/08/27 05:55:07;;;;;;;14.35;3.15;;;;;;;25.38;28.52;99530.27;1772666;81;21177;-83
2022/08/27 06:01:21;;;;;;;15.40;3.37;;;;;;;25.55;27.17;99547.48;1725951;81;21759;-82
2022/08/27 06:04:27;;;;;;;9.30;3.00;;;;;;;25.55;27.50;99551.68;1771258;81;21212;-82
2022/08/27 06:07:34;;;;;;;18.42;3.95;;;;;;;25.69;27.17;99551.27;1771268;80;21189;-82
2022/08/27 06:10:40;;;;;;;15.03;3.17;;;;;;;25.87;27.42;99551.67;1771827;81;21129;-82
2022/08/27 06:13:48;;;;;;;19.25;3.58;;;;;;;25.86;27.38;99557.01;1762206;81;21185;-83
2022/08/27 06:16:54;;;;;;;14.35;3.22;;;;;;;26.00;27.39;99553.20;1771105;81;21562;-82
2022/08/27 06:19:59;;;;;;;13.53;2.52;;;;;;;26.06;27.44;99561.55;1771290;81;21205;-82
2022/08/27 06:23:05;;;;;;;18.42;3.08;;;;;;;26.06;28.44;99559.58;1772452;81;21236;-82
2022/08/27 06:26:13;;;;;;;16.82;3.47;;;;;;;26.13;27.32;99562.05;1772825;81;21261;-83
2022/08/27 06:29:20;;;;;;;18.07;3.47;;;;;;;26.21;26.95;99559.44;1772775;81;21699;-83
2022/08/27 06:32:25;;;;;;;12.07;2.45;;;;;;;26.30;27.02;99545.61;1772739;81;21173;-83
2022/08/27 06:35:31;;;;;;;13.78;3.50;;;;;;;26.38;27.76;99556.70;1772718;81;21225;-83
2022/08/27 06:38:36;;;;;;;14.15;3.35;;;;;;;26.45;27.08;99549.64;1771394;81;21185;-82
2022/08/27 06:41:42;;;;;;;16.40;3.00;;;;;;;26.55;27.02;99548.68;1771270;81;21221;-83
2022/08/27 06:44:48;;;;;;;17.70;3.27;;;;;;;26.51;27.22;99549.01;1772657;81;21342;-83
2022/08/27 06:47:54;;;;;;;7.22;2.55;;;;;;;26.57;27.68;99546.97;1766146;81;21229;-82
2022/08/27 06:51:01;;;;;;;12.90;3.02;;;;;;;26.55;27.08;99539.44;1764491;79;21232;-82
2022/08/27 06:54:11;;;;;;;15.93;2.58;;;;;;;26.71;27.03;99543.11;1774254;79;21540;-82
2022/08/27 06:57:16;;;;;;;12.60;3.27;;;;;;;26.78;27.37;99550.34;1783411;79;21189;-83
2022/08/27 07:00:21;;;;;;;14.33;2.80;;;;;;;26.94;27.39;99544.77;1802661;79;21184;-82
2022/08/27 07:03:27;;;;;;;9.93;2.42;;;;;;;27.00;27.04;99547.19;1770815;79;21209;-83
2022/08/27 07:06:33;;;;;;;10.32;3.37;;;;;;;26.92;27.70;99540.05;1785956;79;21775;-82
2022/08/27 07:09:40;;;;;;;15.63;2.80;;;;;;;26.94;26.95;99540.56;1781526;79;21763;-82
2022/08/27 07:12:47;;;;;;;18.02;2.92;;;;;;;26.87;27.30;99532.53;1774414;79;21157;-82
2022/08/27 07:15:52;;;;;;;12.75;3.35;;;;;;;27.07;27.06;99536.16;1773456;79;21153;-82
2022/08/27 07:19:01;;;;;;;10.23;3.25;;;;;;;27.09;26.96;99525.48;1783673;79;21188;-82
2022/08/27 07:22:09;;;;;;;20.30;2.47;;;;;;;27.20;27.54;99517.19;1779367;79;21162;-83
2022/08/27 07:25:18;;;;;;;17.62;3.35;;;;;;;27.32;27.31;99513.89;1780856;79;21173;-82
2022/08/27 07:28:23;;;;;;;11.15;3.92;;;;;;;27.33;27.76;99514.15;1779624;79;21177;-82
2022/08/27 07:31:29;;;;;;;18.20;3.52;;;;;;;27.38;27.95;99512.08;1775662;79;21205;-82
2022/08/27 07:34:35;;;;;;;12.50;2.85;;;;;;;27.40;26.75;99501.39;1772741;80;21239;-82
2022/08/27 07:37:42;;;;;;;14.80;3.05;;;;;;;27.36;26.32;99505.13;1770812;81;21168;-82
2022/08/27 07:40:51;;;;;;;18.30;3.00;;;;;;;27.34;26.68;99504.61;1776358;79;21176;-82
2022/08/27 07:47:21;;;;;;;7.22;2.45;;;;;;;27.39;27.04;99509.56;1779742;79;21183;-82
2022/08/27 07:50:28;;;;;;;11.75;3.37;;;;;;;27.47;27.75;99504.63;1793363;79;21798;-82
2022/08/27 07:53:33;;;;;;;13.15;2.47;;;;;;;27.54;27.17;99506.22;1786208;79;21157;-82
2022/08/27 07:56:36;;;;;;;19.87;2.90;;;;;;;27.61;27.64;99503.83;1784821;79;21172;-83
2022/08/27 07:59:34;;;;;;;9.70;2.52;;;;;;;27.71;27.87;99503.13;1810942;79;21264;-83
2022/08/27 08:02:20;;;;;;;;;;;;;;;27.71;27.68;99510.16;1814943;79;21212;-83
2022/08/27 08:05:16;;;;;;;19.65;2.60;;;;;;;27.73;26.82;99500.00;1796868;79;20224;-82
2022/08/27 08:08:22;;;;;;;25.40;2.75;;;;;;;27.85;27.77;99502.29;1785306;79;21173;-83
2022/08/27 08:11:27;;;;;;;23.00;3.45;;;;;;;27.95;27.22;99509.14;1780307;80;21200;-82
2022/08/27 08:14:33;;;;;;;20.45;2.77;;;;;;;28.01;27.54;99509.30;1743708;82;21201;-82
2022/08/27 08:17:41;;;;;;;17.35;2.85;;;;;;;28.15;27.07;99510.13;1788355;79;21173;-82
2022/08/27 08:20:48;;;;;;;17.32;3.12;;;;;;;28.23;26.70;99527.69;1796690;79;21762;-82
2022/08/27 08:23:55;;;;;;;11.57;2.47;;;;;;;28.30;26.70;99527.84;1781385;80;21488;-83
2022/08/27 08:27:01;;;;;;;11.95;2.80;;;;;;;28.31;27.91;99514.86;1767066;80;21708;-82
2022/08/27 08:30:01;;;;;;;13.05;2.65;;;;;;;28.31;26.87;99516.27;1764499;81;21189;-82
2022/08/27 08:33:08;;;;;;;16.17;2.90;;;;;;;28.32;27.53;99515.11;1762756;81;21796;-83
2022/08/27 08:36:19;;;;;;;20.35;3.65;;;;;;;28.41;26.85;99520.30;1763987;81;21212;-82
2022/08/27 08:39:26;;;;;;;19.37;3.35;;;;;;;28.43;26.81;99508.75;1764341;81;21503;-82
2022/08/27 08:42:52;;;;;;;22.40;3.30;;;;;;;28.38;26.91;99518.13;1764150;81;21756;-82
2022/08/27 08:45:57;;;;;;;17.17;2.83;;;;;;;28.48;28.15;99512.86;1764912;81;21768;-82
2022/08/27 08:49:07;;;;;;;16.12;2.62;;;;;;;28.46;27.21;99509.51;1762298;81;21225;-82
2022/08/27 08:52:24;;;;;;;15.53;2.92;;;;;;;28.52;27.80;99503.48;1772305;81;21211;-83
2022/08/27 08:55:53;;;;;;;11.45;2.98;;;;;;;28.63;27.81;99509.70;1773697;81;21174;-83
2022/08/27 08:59:17;;;;;;;8.13;2.45;;;;;;;28.74;27.22;99511.13;1772055;81;21177;-83
2022/08/27 09:02:23;;;;;;;11.97;2.83;;;;;;;28.93;28.06;99510.14;1761254;80;21217;-82
2022/08/27 09:05:29;;;;;;;15.08;2.98;;;;;;;28.88;26.65;99512.50;1763570;81;21181;-81
2022/08/27 09:08:47;;;;;;;15.20;3.08;;;;;;;28.81;26.83;99518.32;1794510;79;21165;-82
2022/08/27 09:12:14;;;;;;;11.18;2.70;;;;;;;28.76;26.87;99510.83;1771037;81;21185;-82
2022/08/27 09:15:28;;;;;;;16.17;3.20;;;;;;;28.77;27.08;99511.08;1764042;81;21169;-82
2022/08/27 09:18:34;;;;;;;15.10;2.72;;;;;;;28.88;28.08;99520.11;1762420;81;21216;-82
2022/08/27 09:22:05;;;;;;;15.03;3.37;;;;;;;29.03;28.10;99520.64;1761711;81;21213;-82
2022/08/27 09:25:28;;;;;;;19.23;3.20;;;;;;;29.07;27.29;99517.16;1762463;81;21178;-82
2022/08/27 09:32:05;;;;;;;18.87;4.53;;;;;;;29.24;26.92;99529.41;1761105;80;21222;-82
2022/08/27 09:35:15;;;;;;;21.33;4.10;;;;;;;29.12;26.56;99520.69;1762470;81;21162;-81
2022/08/27 09:38:29;;;;;;;;;;;;;;;28.96;27.29;99534.30;1764965;81;21177;-82
2022/08/27 09:41:38;;;;;;;16.62;3.27;;;;;;;28.83;27.46;99530.08;1762329;81;20219;-83
2022/08/27 09:44:52;;;;;;;16.77;3.80;;;;;;;28.82;27.31;99531.23;1762333;81;21296;-82
2022/08/27 09:48:03;;;;;;;20.57;4.12;;;;;;;28.70;27.67;99536.84;1762079;81;21779;-82
2022/08/27 09:51:22;;;;;;;24.77;4.85;;;;;;;28.74;27.49;99536.45;1771886;80;21201;-82
2022/08/27 09:54:54;;;;;;;22.93;4.35;;;;;;;28.92;28.01;99545.07;1755087;81;21177;-82
2022/08/27 09:58:01;;;;;;;12.93;4.08;;;;;;;29.07;27.54;99546.14;1777881;80;21169;-82
2022/08/27 10:01:12;;;;;;;17.90;4.78;;;;;;;29.26;27.64;99545.97;1776034;81;21168;-82
2022/08/27 10:04:21;;;;;;;15.48;4.65;;;;;;;29.65;28.09;99546.73;1777161;81;21229;-82
2022/08/27 10:07:52;;;;;;;18.73;3.58;;;;;;;29.83;27.64;99541.17;1776793;81;21338;-82
2022/08/27 10:11:07;;;;;;;21.00;4.00;;;;;;;30.00;26.68;99539.87;1776042;81;21189;-82
2022/08/27 10:14:31;;;;;;;31.15;4.42;;;;;;;30.32;27.57;99544.94;1774866;81;21189;-83
2022/08/27 10:17:50;;;;;;;15.72;3.62;;;;;;;30.44;27.17;99540.91;1776832;81;21768;-82
2022/08/27 10:21:22;;;;;;;16.75;2.75;;;;;;;30.41;26.26;99541.58;1776860;81;21173;-82
2022/08/27 10:24:45;;;;;;;23.40;3.45;;;;;;;30.26;26.77;99550.73;1775441;80;21370;-82
2022/08/27 10:28:11;;;;;;;20.15;3.20;;;;;;;30.31;26.26;99546.11;1776686;81;21169;-83
2022/08/27 10:31:25;;;;;;;25.12;4.58;;;;;;;30.24;26.83;99543.16;1776849;81;21311;-82
2022/08/27 10:34:49;;;;;;;20.62;3.95;;;;;;;30.25;27.28;99548.22;1787151;79;21193;-82
2022/08/27 10:38:22;;;;;;;30.15;3.58;;;;;;;30.25;26.43;99545.39;1760822;81;21212;-82
2022/08/27 10:41:37;;;;;;;27.45;4.72;;;;;;;30.34;26.29;99557.55;1762908;81;21229;-82
2022/08/27 10:44:59;;;;;;;20.05;4.53;;;;;;;30.40;26.69;99546.39;1761878;81;21213;-82
2022/08/27 10:48:37;;;;;;;23.62;3.80;;;;;;;30.43;25.80;99549.12;1726981;82;21145;-82
2022/08/27 10:51:49;;;;;;;30.95;4.72;;;;;;;30.46;26.23;99561.17;1730202;82;21898;-83
2022/08/27 10:55:10;;;;;;;20.62;3.40;;;;;;;30.47;25.76;99553.78;1759069;81;21237;-82
2022/08/27 10:58:42;;;;;;;23.02;4.70;;;;;;;30.60;26.14;99553.41;1734155;81;21219;-82
2022/08/27 11:01:56;;;;;;;19.37;4.00;;;;;;;30.66;26.25;99554.09;1720245;83;21184;-82
2022/08/27 11:05:06;;;;;;;30.25;4.92;;;;;;;30.69;26.73;99548.63;1709082;83;21214;-82
2022/08/27 11:08:35;;;;;;;24.05;4.58;;;;;;;30.80;25.90;99549.16;1719327;83;21221;-82
2022/08/27 11:11:48;;;;;;;28.80;4.03;;;;;;;30.84;25.96;99547.35;1699539;84;21205;-82
2022/08/27 11:15:12;;;;;;;22.55;4.12;;;;;;;30.69;26.55;99542.16;1718506;83;21767;-82
2022/08/27 11:18:38;;;;;;;40.95;4.65;;;;;;;30.65;26.78;99553.26;1662056;84;21217;-82
2022/08/27 11:21:50;;;;;;;20.00;3.77;;;;;;;30.63;26.19;99552.77;1719510;83;21235;-82
2022/08/27 11:25:30;;;;;;;22.27;4.80;;;;;;;30.79;26.05;99558.80;1699273;84;21792;-83
2022/08/27 11:28:48;;;;;;;54.90;5.72;;;;;;;30.89;26.25;99567.53;1719159;83;21807;-83
2022/08/27 11:32:08;;;;;;;18.80;4.25;;;;;;;31.07;26.39;99565.58;1698477;84;21214;-83
2022/08/27 11:35:50;;;;;;;26.62;4.37;;;;;;;31.10;24.71;99557.83;1718436;83;21843;-83
2022/08/27 11:39:03;;;;;;;32.33;4.67;;;;;;;31.10;24.71;99557.83;1717339;82;21248;-82
2022/08/27 11:42:34;;;;;;;31.75;5.45;;;;;;;31.20;25.45;99554.13;1717839;83;21196;-83
2022/08/27 11:45:44;;;;;;;22.17;4.40;;;;;;;31.28;25.97;99556.12;1728439;81;21220;-83
2022/08/27 11:48:53;;;;;;;32.13;4.22;;;;;;;31.28;25.97;99556.12;1760805;81;21225;-83
2022/08/27 11:52:11;;;;;;;17.02;4.45;;;;;;;31.28;26.40;99543.41;1715563;81;21295;-83
2022/08/27 11:55:30;;;;;;;31.07;4.20;;;;;;;31.28;26.40;99543.41;1751786;82;21155;-83
2022/08/27 11:58:37;;;;;;;34.83;5.23;;;;;;;31.35;25.89;99553.41;1750837;81;21169;-83
2022/08/27 12:01:44;;;;;;;39.05;5.65;;;;;;;31.26;26.10;99556.19;1752153;81;21821;-83
2022/08/27 12:04:49;;;;;;;29.65;4.62;;;;;;;31.22;26.26;99551.78;1721783;83;21843;-83
2022/08/27 12:07:58;;;;;;;28.67;4.15;;;;;;;31.33;25.81;99558.53;1721620;83;21181;-83
2022/08/27 12:11:40;;;;;;;37.33;5.72;;;;;;;31.45;25.23;99554.47;1721539;83;21759;-83
2022/08/27 12:14:58;;;;;;;37.88;5.30;;;;;;;31.45;25.83;99559.53;1721256;83;21319;-83
2022/08/27 12:18:23;;;;;;;18.67;4.55;;;;;;;31.71;26.32;99550.18;1720256;83;21248;-83
2022/08/27 12:21:34;;;;;;;40.17;5.00;;;;;;;31.71;26.32;99550.18;1721510;83;21775;-83
2022/08/27 12:25:02;;;;;;;42.17;5.37;;;;;;;31.89;26.28;99551.01;1720514;83;21240;-83
2022/08/27 12:28:10;;;;;;;24.35;4.80;;;;;;;31.93;25.93;99552.00;1720228;83;21252;-82
2022/08/27 12:31:16;;;;;;;37.97;5.10;;;;;;;31.97;25.60;99545.33;1721600;83;21780;-82
2022/08/27 12:34:34;;;;;;;38.90;5.47;;;;;;;31.93;25.24;99553.41;1721544;83;21752;-83
2022/08/27 12:38:05;;;;;;;40.65;5.25;;;;;;;32.04;25.36;99545.66;1721867;83;21197;-82
2022/08/27 12:41:13;;;;;;;32.80;6.00;;;;;;;32.17;25.04;99546.59;1721829;83;21204;-82
2022/08/27 12:44:35;;;;;;;38.92;5.72;;;;;;;32.25;24.76;99544.31;1720969;83;21213;-82
2022/08/27 12:47:45;;;;;;;42.40;5.47;;;;;;;32.22;24.82;99549.23;1720839;83;21216;-83
2022/08/27 12:50:50;;;;;;;42.40;6.90;;;;;;;32.17;25.62;99547.17;1720067;83;21268;-82
2022/08/27 12:54:50;;;;;;;49.10;6.33;;;;;;;32.22;25.48;99546.39;1719049;83;21208;-82
2022/08/27 12:58:39;;;;;;;34.73;6.05;;;;;;;32.14;24.94;99541.63;1709622;84;21237;-82
2022/08/27 13:02:04;;;;;;;40.40;7.15;;;;;;;32.05;25.79;99539.41;1710382;84;21197;-83
2022/08/27 13:05:11;;;;;;;45.15;6.00;;;;;;;32.05;26.01;99534.58;1710151;84;21241;-82
2022/08/27 13:08:31;;;;;;;36.90;5.95;;;;;;;32.14;25.67;99537.38;1710462;84;22292;-82
2022/08/27 13:11:40;;;;;;;32.15;7.20;;;;;;;32.30;25.71;99534.81;1710355;84;21237;-83
2022/08/27 13:14:47;;;;;;;32.88;6.75;;;;;;;32.27;25.35;99532.06;1710855;84;21209;-82
2022/08/27 13:17:54;;;;;;;33.15;7.28;;;;;;;32.11;26.52;99529.56;1710261;84;21189;-82
2022/08/27 13:21:10;;;;;;;39.18;6.90;;;;;;;32.00;26.50;99526.88;1689896;84;21236;-82
2022/08/27 13:24:17;;;;;;;37.15;7.42;;;;;;;31.99;26.59;99525.19;1710113;84;21237;-82
2022/08/27 13:27:22;;;;;;;35.50;7.30;;;;;;;31.97;26.20;99531.78;1710281;84;21197;-83
2022/08/27 13:30:28;;;;;;;47.13;8.03;;;;;;;31.89;26.41;99527.80;1722375;82;21178;-82
2022/08/27 13:33:44;;;;;;;31.00;7.12;;;;;;;31.90;26.30;99538.52;1681040;82;21836;-82
2022/08/27 13:37:09;;;;;;;53.63;8.75;;;;;;;31.76;26.37;99533.90;1685051;84;21192;-82
2022/08/27 13:40:15;;;;;;;47.53;8.03;;;;;;;31.62;26.50;99530.44;1711646;84;21217;-83
2022/08/27 13:43:22;;;;;;;54.48;8.05;;;;;;;31.56;26.99;99536.82;1711703;84;21231;-82
2022/08/27 13:46:37;;;;;;;34.78;8.08;;;;;;;31.49;27.20;99540.75;1711153;84;21271;-82
2022/08/27 13:49:44;;;;;;;44.35;8.83;;;;;;;31.47;27.60;99556.37;1712102;84;22517;-83
2022/08/27 13:56:13;;;;;;;32.93;7.72;;;;;;;31.33;28.05;99563.60;1721450;82;21262;-83
2022/08/27 13:59:26;;;;;;;43.30;8.10;;;;;;;31.32;28.93;99559.70;1743606;82;21193;-83
2022/08/27 14:02:38;;;;;;;45.35;8.63;;;;;;;31.37;29.55;99563.19;1743480;82;21145;-82
2022/08/27 14:05:50;;;;;;;45.20;8.95;;;;;;;31.37;29.55;99563.19;1721951;82;21221;-83
2022/08/27 14:08:57;;;;;;;52.88;8.93;;;;;;;31.28;31.38;99546.23;1715109;83;21201;-82
2022/08/27 14:12:11;;;;;;;47.58;8.80;;;;;;;31.11;31.36;99542.58;1743551;82;21208;-82
2022/08/27 14:15:37;;;;;;;38.20;8.83;;;;;;;30.95;32.50;99535.98;1713637;83;21304;-82
2022/08/27 14:18:44;;;;;;;48.73;8.03;;;;;;;30.95;32.50;99535.98;1744534;82;21173;-82
2022/08/27 14:21:52;;;;;;;46.35;8.18;;;;;;;30.95;31.66;99528.92;1715108;83;21236;-82
2022/08/27 14:24:58;;;;;;;52.48;8.33;;;;;;;30.90;31.48;99527.67;1744579;82;21189;-82
2022/08/27 14:28:03;;;;;;;31.10;7.25;;;;;;;30.71;32.54;99523.74;1713641;83;21240;-82
2022/08/27 14:31:10;;;;;;;38.05;9.00;;;;;;;30.74;32.42;99525.91;1743127;82;21493;-82
2022/08/27 14:34:17;;;;;;;44.53;7.90;;;;;;;30.74;32.28;99534.97;1715090;83;21221;-82
2022/08/27 14:37:22;;;;;;;45.70;7.03;;;;;;;30.61;32.07;99535.31;1743595;82;21193;-82
2022/08/27 14:40:28;;;;;;;40.90;8.98;;;;;;;30.58;32.83;99531.73;1714651;83;21200;-82
2022/08/27 14:43:27;;;;;;;43.80;8.00;;;;;;;30.61;35.80;99532.49;1686605;85;21261;-82
2022/08/27 14:46:38;;;;;;;44.93;8.03;;;;;;;30.58;36.51;99526.66;1714410;83;21233;-82
2022/08/27 14:49:48;;;;;;;39.60;8.73;;;;;;;30.40;35.11;99525.81;1685278;85;21248;-82
2022/08/27 14:52:54;;;;;;;35.90;8.20;;;;;;;30.30;34.57;99528.33;1715216;83;21209;-82
2022/08/27 14:56:04;;;;;;;34.95;6.90;;;;;;;30.20;33.57;99530.86;1686239;83;21327;-82
2022/08/27 14:59:09;;;;;;;47.13;8.43;;;;;;;30.23;32.51;99531.62;1696449;84;21750;-82